Time;durP1;ratioP1;P1;durP2;ratioP2;P2;SDS_P1;SDS_P2;PMS_P1;PMS_P2;Temp;Humidity;BMP_temperature;BMP_pressure;BME280_temperature;BME280_humidity;BME280_pressure;Samples;Min_cycle;Max_cycle;Signal;HPM_P1;HPM_P2
2023/08/23 00:00:07;;;;;;;1.33;1.23;;;;;;;25.47;63.80;99720.00;332949;29;4618;-91
2023/08/23 00:00:19;;;;;;;1.50;1.38;;;;;;;25.47;63.68;99730.66;332219;29;16471;-91
2023/08/23 00:00:31;;;;;;;1.63;1.40;;;;;;;25.46;63.75;99731.66;334357;29;4659;-90
2023/08/23 00:00:43;;;;;;;1.70;1.50;;;;;;;25.46;63.57;99729.00;333380;28;4619;-90
2023/08/23 00:00:55;;;;;;;1.98;1.50;;;;;;;25.44;63.88;99731.78;332891;29;4562;-90
2023/08/23 00:01:11;;;;;;;2.40;1.40;;;;;;;25.44;63.46;99731.78;331578;29;17838;-90
2023/08/23 00:01:37;;;;;;;2.65;1.52;;;;;;;25.42;63.37;99733.75;333772;29;16114;-90
2023/08/23 00:01:49;;;;;;;1.75;1.35;;;;;;;25.41;63.91;99732.06;332259;29;17304;-90
2023/08/23 00:02:01;;;;;;;1.50;1.15;;;;;;;25.40;63.57;99729.56;335739;28;4565;-90
2023/08/23 00:02:13;;;;;;;1.30;1.20;;;;;;;25.41;63.60;99731.25;331846;29;16441;-91
2023/08/23 00:02:25;;;;;;;1.77;1.20;;;;;;;25.42;63.84;99731.09;336284;29;4691;-90
2023/08/23 00:02:38;;;;;;;1.80;1.25;;;;;;;25.41;63.78;99732.06;335153;29;4549;-90
2023/08/23 00:02:50;;;;;;;2.45;1.38;;;;;;;25.41;63.87;99724.09;333004;28;18023;-91
2023/08/23 00:03:02;;;;;;;3.90;1.50;;;;;;;25.38;63.35;99727.06;334679;28;4540;-90
2023/08/23 00:03:14;;;;;;;4.18;1.60;;;;;;;25.38;63.24;99723.56;331573;29;6467;-89
2023/08/23 00:03:27;;;;;;;2.85;1.48;;;;;;;25.39;63.82;99723.38;334229;29;4485;-90
2023/08/23 00:03:40;;;;;;;1.75;1.20;;;;;;;25.39;63.63;99723.38;332035;29;17442;-90
2023/08/23 00:03:52;;;;;;;2.58;1.13;;;;;;;25.42;63.66;99728.44;331144;28;4526;-90
2023/08/23 00:04:04;;;;;;;3.00;1.23;;;;;;;25.41;63.27;99732.06;332503;28;17338;-91
2023/08/23 00:04:19;;;;;;;3.05;1.33;;;;;;;25.42;63.31;99731.09;336264;28;4470;-91
2023/08/23 00:04:34;;;;;;;1.73;1.40;;;;;;;25.43;63.34;99727.44;330175;29;17435;-90
2023/08/23 00:04:47;;;;;;;1.50;1.30;;;;;;;25.44;63.01;99728.31;325811;29;16667;-90
2023/08/23 00:04:59;;;;;;;1.48;1.30;;;;;;;25.42;63.13;99728.44;331714;29;16177;-91
2023/08/23 00:05:12;;;;;;;1.52;1.40;;;;;;;25.42;63.15;99727.59;333392;29;4520;-91
2023/08/23 00:05:24;;;;;;;1.50;1.35;;;;;;;25.40;63.03;99725.09;332378;29;4478;-89
2023/08/23 00:05:36;;;;;;;1.38;1.27;;;;;;;25.39;63.29;99726.06;330989;29;17173;-91
2023/08/23 00:05:48;;;;;;;1.42;1.27;;;;;;;25.38;63.34;99727.06;333050;29;4581;-91
2023/08/23 00:06:00;;;;;;;1.70;1.30;;;;;;;25.37;63.15;99719.22;332651;28;16902;-92
2023/08/23 00:06:12;;;;;;;1.92;1.30;;;;;;;25.37;63.30;99725.34;335647;28;4483;-91
2023/08/23 00:06:24;;;;;;;1.40;1.30;;;;;;;25.36;63.34;99729.03;334717;29;4449;-91
2023/08/23 00:06:36;;;;;;;1.48;1.25;;;;;;;25.35;63.67;99727.31;330940;29;17831;-91
2023/08/23 00:06:48;;;;;;;1.52;1.30;;;;;;;25.35;63.77;99724.66;329522;29;4604;-91
2023/08/23 00:07:01;;;;;;;1.77;1.40;;;;;;;25.34;64.66;99723.00;331163;29;17596;-91
2023/08/23 00:07:13;;;;;;;1.90;1.35;;;;;;;25.33;64.05;99726.63;333234;29;4546;-91
2023/08/23 00:07:25;;;;;;;1.75;1.35;;;;;;;25.32;64.33;99724.97;329196;29;4663;-91
2023/08/23 00:07:37;;;;;;;2.15;1.30;;;;;;;25.33;64.13;99723.97;334357;29;4530;-90
2023/08/23 00:07:49;;;;;;;2.33;1.38;;;;;;;25.32;64.30;99724.97;331728;29;4593;-92
2023/08/23 00:08:01;;;;;;;1.63;1.30;;;;;;;25.33;64.52;99723.97;334650;29;4522;-90
2023/08/23 00:08:14;;;;;;;1.40;1.30;;;;;;;25.33;64.41;99723.13;334390;29;4592;-91
2023/08/23 00:08:26;;;;;;;1.50;1.30;;;;;;;25.31;64.20;99721.47;326425;29;7371;-90
2023/08/23 00:08:38;;;;;;;1.50;1.30;;;;;;;25.31;63.99;99715.28;331971;29;4527;-91
2023/08/23 00:08:50;;;;;;;1.58;1.30;;;;;;;25.30;64.00;99725.09;331360;29;4546;-91
2023/08/23 00:09:04;;;;;;;1.35;1.20;;;;;;;25.31;64.04;99720.59;334229;29;4556;-91
2023/08/23 00:09:16;;;;;;;1.42;1.30;;;;;;;25.29;64.42;99717.25;333006;28;18129;-91
2023/08/23 00:09:29;;;;;;;1.40;1.30;;;;;;;25.29;63.91;99722.56;335737;28;4565;-91
2023/08/23 00:09:41;;;;;;;1.98;1.38;;;;;;;25.27;64.81;99721.88;330014;29;17322;-91
2023/08/23 00:09:53;;;;;;;2.00;1.40;;;;;;;25.28;64.06;99720.91;330938;29;18115;-91
2023/08/23 00:10:06;;;;;;;1.60;1.50;;;;;;;25.28;64.04;99723.56;330895;29;10107;-90
2023/08/23 00:10:18;;;;;;;2.13;1.42;;;;;;;25.29;64.00;99717.25;331827;29;4514;-90
2023/08/23 00:10:30;;;;;;;2.22;1.33;;;;;;;25.27;63.97;99713.91;331462;29;4519;-90
2023/08/23 00:10:42;;;;;;;2.50;1.25;;;;;;;25.27;64.26;99713.91;331963;29;17587;-90
2023/08/23 00:10:55;;;;;;;2.25;1.20;;;;;;;25.28;64.14;99718.25;336171;29;4614;-90
2023/08/23 00:11:07;;;;;;;1.70;1.20;;;;;;;25.28;63.88;99720.91;333157;28;17656;-91
2023/08/23 00:11:19;;;;;;;2.10;1.42;;;;;;;25.27;64.40;99719.22;331004;28;4644;-90
2023/08/23 00:11:32;;;;;;;2.80;1.50;;;;;;;25.28;64.36;99718.25;335645;28;4495;-90
2023/08/23 00:11:44;;;;;;;2.47;1.50;;;;;;;25.28;63.96;99720.91;332314;29;18371;-89
2023/08/23 00:11:56;;;;;;;2.22;1.33;;;;;;;25.27;63.97;99713.91;335635;28;4454;-90
2023/08/23 00:12:08;;;;;;;2.20;1.42;;;;;;;25.26;64.26;99717.56;330977;29;16507;-91
2023/08/23 00:12:20;;;;;;;1.65;1.38;;;;;;;25.24;64.08;99724.84;333645;29;4493;-89
2023/08/23 00:12:32;;;;;;;1.88;1.23;;;;;;;25.24;64.11;99720.34;328789;29;18075;-90
2023/08/23 00:12:45;;;;;;;2.10;1.02;;;;;;;25.25;64.34;99721.19;329809;29;4623;-91
2023/08/23 00:12:57;;;;;;;2.25;1.08;;;;;;;25.24;64.21;99724.84;333476;28;5083;-91
2023/08/23 00:13:09;;;;;;;1.40;1.10;;;;;;;25.23;64.20;99717.81;337530;28;4457;-91
2023/08/23 00:13:22;;;;;;;1.27;1.17;;;;;;;25.23;64.02;99723.16;336675;28;4546;-91
2023/08/23 00:13:34;;;;;;;1.83;1.20;;;;;;;25.22;64.26;99716.16;332553;28;16792;-90
2023/08/23 00:13:46;;;;;;;2.70;1.20;;;;;;;25.23;64.04;99717.81;334637;29;4476;-89
2023/08/23 00:13:58;;;;;;;3.45;1.30;;;;;;;25.21;64.23;99717.09;331076;29;18070;-90
2023/08/23 00:14:10;;;;;;;2.55;1.30;;;;;;;25.20;64.28;99723.41;331419;29;4829;-91
2023/08/23 00:14:22;;;;;;;2.70;1.40;;;;;;;25.19;64.27;99716.41;331490;29;4503;-91
2023/08/23 00:14:35;;;;;;;1.45;1.33;;;;;;;25.20;63.91;99720.75;328948;29;16003;-90
2023/08/23 00:14:47;;;;;;;1.30;1.20;;;;;;;25.19;64.18;99721.72;329655;29;6465;-90
2023/08/23 00:14:59;;;;;;;1.20;1.10;;;;;;;25.19;64.10;99722.56;331550;29;4549;-91
2023/08/23 00:15:12;;;;;;;1.20;1.10;;;;;;;25.19;64.24;99719.91;333357;29;4535;-90
2023/08/23 00:15:24;;;;;;;1.20;1.10;;;;;;;25.19;64.11;99724.38;330066;29;16638;-90
2023/08/23 00:15:41;;;;;;;1.50;1.20;;;;;;;25.18;64.24;99720.06;330738;29;4561;-91
2023/08/23 00:15:53;;;;;;;1.70;1.30;;;;;;;25.17;64.00;99718.38;328476;29;17687;-91
2023/08/23 00:16:05;;;;;;;2.13;1.20;;;;;;;25.17;64.38;99723.69;331460;29;16292;-91
2023/08/23 00:16:17;;;;;;;1.73;1.10;;;;;;;25.17;64.23;99721.03;335575;29;4667;-90
2023/08/23 00:16:29;;;;;;;2.25;1.30;;;;;;;25.17;64.00;99718.38;330105;29;17741;-91
2023/08/23 00:16:41;;;;;;;2.80;1.30;;;;;;;25.12;64.07;99710.81;333990;28;4608;-90
2023/08/23 00:16:53;;;;;;;2.50;1.20;;;;;;;25.11;63.92;99719.78;331650;28;4865;-92
2023/08/23 00:17:06;;;;;;;2.08;1.30;;;;;;;25.11;64.11;99725.94;333797;29;4492;-91
2023/08/23 00:17:18;;;;;;;1.90;1.48;;;;;;;25.11;64.18;99720.63;336286;29;4460;-90
2023/08/23 00:17:30;;;;;;;2.50;1.50;;;;;;;25.11;63.77;99717.09;333554;29;16619;-89
2023/08/23 00:17:42;;;;;;;2.28;1.30;;;;;;;25.08;64.03;99712.91;336611;28;4576;-90
2023/08/23 00:17:54;;;;;;;2.05;1.30;;;;;;;25.05;64.02;99721.19;333079;28;18061;-90
2023/08/23 00:18:06;;;;;;;1.40;1.30;;;;;;;25.04;63.86;99713.34;336374;28;4719;-91
2023/08/23 00:18:18;;;;;;;1.60;1.40;;;;;;;25.01;63.76;99713.63;334939;28;4618;-91
2023/08/23 00:18:30;;;;;;;1.90;1.50;;;;;;;24.98;64.17;99720.06;337518;28;4610;-91
2023/08/23 00:18:42;;;;;;;2.72;1.40;;;;;;;25.00;64.29;99717.28;336670;28;4500;-91
2023/08/23 00:18:55;;;;;;;2.95;1.30;;;;;;;25.00;64.41;99718.09;332943;28;5449;-91
2023/08/23 00:19:07;;;;;;;1.90;1.30;;;;;;;24.99;64.49;99711.13;335769;28;4456;-90
2023/08/23 00:19:19;;;;;;;1.40;1.30;;;;;;;25.00;64.57;99706.63;333120;29;4537;-89
2023/08/23 00:19:31;;;;;;;1.42;1.20;;;;;;;24.98;64.67;99714.75;329301;29;16524;-89
2023/08/23 00:19:43;;;;;;;1.83;1.35;;;;;;;24.97;64.34;99713.09;332176;29;4520;-90
2023/08/23 00:19:55;;;;;;;2.67;1.52;;;;;;;24.99;64.53;99716.44;330242;29;16590;-90
2023/08/23 00:20:07;;;;;;;2.40;1.50;;;;;;;24.97;64.29;99712.22;328595;29;4668;-90
2023/08/23 00:20:20;;;;;;;2.03;1.48;;;;;;;24.96;65.09;99716.72;332743;29;5653;-90
2023/08/23 00:20:32;;;;;;;2.03;1.38;;;;;;;24.98;64.78;99713.91;334817;29;4494;-90
2023/08/23 00:20:44;;;;;;;1.77;1.27;;;;;;;24.97;65.24;99709.56;333860;29;4501;-90
2023/08/23 00:20:56;;;;;;;1.42;1.30;;;;;;;24.96;65.54;99711.41;334614;28;7947;-90
2023/08/23 00:21:08;;;;;;;1.95;1.50;;;;;;;24.96;65.38;99711.41;336631;28;4751;-90
2023/08/23 00:21:20;;;;;;;2.35;1.40;;;;;;;24.94;65.33;99710.69;333360;28;16950;-91
2023/08/23 00:21:32;;;;;;;2.38;1.50;;;;;;;24.96;65.56;99716.72;337197;28;4605;-91
2023/08/23 00:21:44;;;;;;;1.95;1.40;;;;;;;24.94;66.14;99713.34;330014;28;4615;-90
2023/08/23 00:21:56;;;;;;;1.60;1.40;;;;;;;24.98;65.40;99716.59;330039;29;17399;-89
2023/08/23 00:22:08;;;;;;;1.48;1.38;;;;;;;24.97;65.05;99702.44;334773;29;4455;-90
2023/08/23 00:22:20;;;;;;;1.48;1.30;;;;;;;24.99;65.31;99713.78;332349;29;4535;-91
2023/08/23 00:22:32;;;;;;;1.63;1.30;;;;;;;25.00;64.94;99707.47;335498;28;4545;-92
2023/08/23 00:22:45;;;;;;;1.70;1.30;;;;;;;25.01;64.86;99709.16;334997;28;4535;-91
2023/08/23 00:22:56;;;;;;;1.55;1.30;;;;;;;25.01;64.82;99714.47;332148;28;17835;-90
2023/08/23 00:23:09;;;;;;;1.50;1.40;;;;;;;24.98;64.86;99714.75;329055;29;4642;-90
2023/08/23 00:23:21;;;;;;;1.40;1.30;;;;;;;24.96;64.85;99711.41;328659;29;4645;-91
2023/08/23 00:23:33;;;;;;;1.65;1.42;;;;;;;24.93;65.37;99716.97;332956;29;4466;-90
2023/08/23 00:23:45;;;;;;;1.90;1.50;;;;;;;24.93;64.99;99719.63;332646;29;4485;-90
2023/08/23 00:23:57;;;;;;;1.60;1.40;;;;;;;24.90;65.18;99722.59;331127;29;7526;-90
2023/08/23 00:24:09;;;;;;;1.30;1.15;;;;;;;24.90;65.01;99715.44;333358;29;4480;-90
2023/08/23 00:24:21;;;;;;;1.30;1.20;;;;;;;24.86;65.18;99722.03;332166;29;18768;-91
2023/08/23 00:24:33;;;;;;;1.60;1.35;;;;;;;24.88;64.91;99719.25;331559;29;17778;-91
2023/08/23 00:24:45;;;;;;;2.65;1.50;;;;;;;24.90;65.26;99722.59;334326;29;4534;-90
2023/08/23 00:24:57;;;;;;;2.45;1.45;;;;;;;24.91;65.06;99714.50;332619;28;4869;-91
2023/08/23 00:25:09;;;;;;;2.15;1.33;;;;;;;24.93;65.04;99719.63;336335;28;4438;-90
2023/08/23 00:25:21;;;;;;;1.40;1.20;;;;;;;24.92;65.09;99715.31;334020;28;12149;-91
2023/08/23 00:25:33;;;;;;;2.22;1.30;;;;;;;24.93;65.04;99714.31;336007;28;4492;-90
2023/08/23 00:25:45;;;;;;;2.90;1.60;;;;;;;24.92;64.73;99715.31;335906;29;5101;-90
2023/08/23 00:25:57;;;;;;;2.72;1.48;;;;;;;24.92;64.78;99715.31;331995;28;17931;-92
2023/08/23 00:26:11;;;;;;;1.92;1.35;;;;;;;24.91;64.63;99714.50;335520;28;4517;-91
2023/08/23 00:26:23;;;;;;;1.70;1.40;;;;;;;24.88;64.66;99714.75;329609;28;4752;-91
2023/08/23 00:26:35;;;;;;;2.13;1.48;;;;;;;24.86;64.73;99715.88;337283;28;4613;-90
2023/08/23 00:26:47;;;;;;;2.03;1.40;;;;;;;24.86;64.54;99715.88;336101;28;4958;-90
2023/08/23 00:26:59;;;;;;;1.77;1.33;;;;;;;24.87;64.82;99717.53;332894;28;16776;-89
2023/08/23 00:27:11;;;;;;;1.63;1.38;;;;;;;24.87;64.69;99717.53;334559;29;4544;-89
2023/08/23 00:27:23;;;;;;;1.50;1.30;;;;;;;24.86;65.03;99710.56;331141;29;16446;-90
2023/08/23 00:27:35;;;;;;;1.33;1.20;;;;;;;24.84;64.84;99707.22;332953;29;4509;-90
2023/08/23 00:27:47;;;;;;;1.33;1.23;;;;;;;24.82;64.75;99717.13;334539;29;4503;-90
2023/08/23 00:28:11;;;;;;;1.80;1.50;;;;;;;24.79;65.19;99714.75;330672;29;18035;-90
2023/08/23 00:28:25;;;;;;;1.98;1.48;;;;;;;24.76;65.46;99720.38;331407;28;17584;-91
2023/08/23 00:28:40;;;;;;;2.47;1.50;;;;;;;24.75;65.24;99719.53;333954;28;4820;-91
2023/08/23 00:28:52;;;;;;;2.83;1.67;;;;;;;24.74;65.09;99717.84;329773;29;17906;-89
2023/08/23 00:29:04;;;;;;;3.45;1.65;;;;;;;24.74;65.21;99723.16;331781;28;4675;-90
2023/08/23 00:29:16;;;;;;;2.67;1.33;;;;;;;24.74;65.26;99714.34;335471;28;4665;-90
2023/08/23 00:29:28;;;;;;;1.67;1.13;;;;;;;24.75;65.07;99713.34;333532;28;4745;-90
2023/08/23 00:29:41;;;;;;;1.33;1.23;;;;;;;24.75;65.16;99716.00;335445;28;4471;-90
2023/08/23 00:29:53;;;;;;;1.80;1.50;;;;;;;24.76;65.39;99723.03;335873;28;4491;-91
2023/08/23 00:30:05;;;;;;;2.70;1.60;;;;;;;24.78;65.37;99718.41;331387;29;18455;-90
2023/08/23 00:30:17;;;;;;;2.80;1.60;;;;;;;24.76;65.72;99720.38;334497;29;4512;-90
2023/08/23 00:30:29;;;;;;;1.88;1.50;;;;;;;24.77;65.72;99719.38;331853;28;18001;-91
2023/08/23 00:31:08;;;;;;;1.90;1.50;;;;;;;24.78;65.92;99718.41;334107;28;4539;-91
2023/08/23 00:31:20;;;;;;;1.95;1.60;;;;;;;24.78;65.96;99716.56;326091;29;15877;-90
2023/08/23 00:31:32;;;;;;;1.75;1.40;;;;;;;24.82;66.00;99717.13;333572;29;4490;-89
2023/08/23 00:31:44;;;;;;;1.75;1.35;;;;;;;24.82;65.76;99719.81;334543;29;4525;-91
2023/08/23 00:31:56;;;;;;;1.73;1.35;;;;;;;24.83;66.08;99719.66;332287;29;17374;-89
2023/08/23 00:32:08;;;;;;;1.70;1.35;;;;;;;24.84;65.63;99709.88;331152;28;5233;-89
2023/08/23 00:32:20;;;;;;;1.50;1.40;;;;;;;24.83;65.93;99711.69;332975;28;17605;-90
2023/08/23 00:32:32;;;;;;;2.05;1.40;;;;;;;24.85;65.66;99719.50;335992;29;4496;-89
2023/08/23 00:32:44;;;;;;;2.40;1.40;;;;;;;24.85;65.93;99715.06;333222;28;4516;-90
2023/08/23 00:32:56;;;;;;;2.55;1.40;;;;;;;24.84;65.92;99717.84;336015;28;4494;-89
2023/08/23 00:33:09;;;;;;;1.83;1.50;;;;;;;24.85;65.88;99719.50;334236;28;4481;-90
2023/08/23 00:33:22;;;;;;;1.88;1.58;;;;;;;24.86;65.99;99716.72;330694;29;17636;-90
2023/08/23 00:33:34;;;;;;;1.75;1.58;;;;;;;24.85;66.26;99716.84;333387;29;4504;-90
2023/08/23 00:33:46;;;;;;;1.77;1.63;;;;;;;24.85;66.17;99714.19;332294;29;17819;-91
2023/08/23 00:33:58;;;;;;;2.70;1.65;;;;;;;24.86;66.14;99721.19;335288;29;4477;-90
2023/08/23 00:34:10;;;;;;;3.75;1.60;;;;;;;24.86;66.02;99715.88;332725;29;4537;-90
2023/08/23 00:34:22;;;;;;;3.63;1.45;;;;;;;24.87;65.97;99712.22;336220;28;4506;-90
2023/08/23 00:34:34;;;;;;;2.20;1.50;;;;;;;24.88;65.76;99719.25;334754;29;4607;-90
2023/08/23 00:34:46;;;;;;;2.08;1.60;;;;;;;24.87;65.80;99712.22;331711;29;17036;-91
2023/08/23 00:34:59;;;;;;;1.95;1.48;;;;;;;24.87;65.75;99721.06;335398;28;4518;-91
2023/08/23 00:35:11;;;;;;;2.40;1.40;;;;;;;24.87;65.91;99714.88;332112;28;4543;-90
2023/08/23 00:35:23;;;;;;;2.40;1.30;;;;;;;24.86;66.22;99713.22;333217;29;4536;-90
2023/08/23 00:35:35;;;;;;;2.67;1.40;;;;;;;24.84;66.52;99717.84;333507;29;4509;-90
2023/08/23 00:35:47;;;;;;;1.63;1.40;;;;;;;24.83;66.47;99721.47;330932;29;16605;-91
2023/08/23 00:35:59;;;;;;;1.98;1.50;;;;;;;24.83;66.31;99718.81;334742;29;4966;-90
2023/08/23 00:36:11;;;;;;;1.88;1.60;;;;;;;24.84;66.33;99712.53;330740;29;8051;-91
2023/08/23 00:36:23;;;;;;;1.60;1.50;;;;;;;24.82;66.19;99714.47;334172;29;4916;-91
2023/08/23 00:36:35;;;;;;;1.70;1.60;;;;;;;24.81;66.13;99712.78;333477;29;4573;-90
2023/08/23 00:36:48;;;;;;;1.85;1.52;;;;;;;24.81;66.33;99718.09;327858;29;4718;-91
2023/08/23 00:37:00;;;;;;;1.75;1.50;;;;;;;24.80;66.49;99711.13;335502;29;4753;-90
2023/08/23 00:37:12;;;;;;;2.17;1.58;;;;;;;24.77;66.78;99716.72;332279;29;17901;-91
2023/08/23 00:37:24;;;;;;;2.15;1.48;;;;;;;24.77;67.07;99714.06;335105;29;4583;-89
2023/08/23 00:37:36;;;;;;;2.90;1.40;;;;;;;24.78;66.94;99718.41;333852;28;4675;-90
2023/08/23 00:37:48;;;;;;;2.60;1.50;;;;;;;24.76;67.25;99720.38;334160;28;17364;-90
2023/08/23 00:38:00;;;;;;;1.73;1.40;;;;;;;24.78;66.98;99715.75;334530;29;4509;-90
2023/08/23 00:38:13;;;;;;;1.70;1.33;;;;;;;24.79;66.44;99714.75;331905;29;4638;-91
2023/08/23 00:38:25;;;;;;;1.38;1.25;;;;;;;24.80;66.28;99716.44;328296;29;6846;-89
2023/08/23 00:38:37;;;;;;;1.40;1.23;;;;;;;24.81;66.13;99712.78;331810;29;4547;-90
2023/08/23 00:38:49;;;;;;;1.30;1.20;;;;;;;24.81;66.06;99712.78;329434;29;16602;-90
2023/08/23 00:39:01;;;;;;;1.30;1.20;;;;;;;24.82;66.27;99712.66;333257;29;4507;-90
2023/08/23 00:39:13;;;;;;;1.30;1.20;;;;;;;24.83;65.96;99711.69;330644;29;17330;-91
2023/08/23 00:39:25;;;;;;;1.52;1.42;;;;;;;24.84;65.95;99720.50;334272;29;4476;-90
2023/08/23 00:39:37;;;;;;;1.75;1.50;;;;;;;24.83;65.71;99722.31;334537;28;4562;-90
2023/08/23 00:39:49;;;;;;;1.67;1.50;;;;;;;24.81;65.71;99715.44;336334;28;4526;-91
2023/08/23 00:40:02;;;;;;;2.15;1.30;;;;;;;24.79;65.58;99714.75;334636;28;18003;-90
2023/08/23 00:40:19;;;;;;;2.20;1.33;;;;;;;24.78;65.73;99718.41;334813;28;16075;-89
2023/08/23 00:40:31;;;;;;;1.80;1.42;;;;;;;24.78;65.83;99723.72;332287;28;17195;-90
2023/08/23 00:40:43;;;;;;;1.60;1.50;;;;;;;24.77;66.27;99716.72;333012;28;4501;-91
2023/08/23 00:40:56;;;;;;;1.50;1.40;;;;;;;24.76;65.99;99721.19;335876;28;4495;-89
2023/08/23 00:41:09;;;;;;;1.60;1.40;;;;;;;24.76;65.79;99721.19;334967;29;4479;-90
2023/08/23 00:41:22;;;;;;;2.58;1.40;;;;;;;24.77;65.97;99714.06;331912;29;17115;-89
2023/08/23 00:41:35;;;;;;;3.13;1.30;;;;;;;24.76;65.97;99723.03;330895;29;4603;-90
2023/08/23 00:41:47;;;;;;;2.85;1.33;;;;;;;24.78;65.80;99721.06;334761;29;4496;-90
2023/08/23 00:41:59;;;;;;;2.03;1.40;;;;;;;24.74;65.77;99717.84;333717;28;17035;-90
2023/08/23 00:42:11;;;;;;;1.70;1.40;;;;;;;24.76;65.85;99715.03;335037;28;4688;-89
2023/08/23 00:42:23;;;;;;;1.50;1.35;;;;;;;24.74;65.74;99723.16;333256;29;4511;-91
2023/08/23 00:42:35;;;;;;;1.30;1.20;;;;;;;24.72;65.71;99715.31;331366;29;15897;-90
2023/08/23 00:42:47;;;;;;;1.83;1.20;;;;;;;24.72;65.57;99715.31;331391;28;4488;-90
2023/08/23 00:42:59;;;;;;;1.90;1.30;;;;;;;24.72;65.91;99720.63;334924;28;4527;-92
2023/08/23 00:43:11;;;;;;;1.42;1.30;;;;;;;24.72;65.76;99719.78;336098;28;16529;-90
2023/08/23 00:43:23;;;;;;;2.30;1.40;;;;;;;24.69;65.97;99720.09;337190;28;4467;-90
2023/08/23 00:43:36;;;;;;;2.35;1.40;;;;;;;24.69;65.91;99726.25;334573;28;21737;-91
2023/08/23 00:43:48;;;;;;;1.95;1.40;;;;;;;24.69;66.04;99720.09;337118;28;4449;-90
2023/08/23 00:44:00;;;;;;;1.92;1.42;;;;;;;24.67;65.89;99725.53;335187;28;16811;-91
2023/08/23 00:44:12;;;;;;;1.75;1.40;;;;;;;24.64;66.14;99723.13;337321;28;4578;-90
2023/08/23 00:44:24;;;;;;;2.13;1.50;;;;;;;24.63;66.09;99725.94;330773;29;4519;-90
2023/08/23 00:44:36;;;;;;;2.65;1.50;;;;;;;24.61;66.14;99722.56;331531;29;17868;-90
2023/08/23 00:44:48;;;;;;;2.90;1.50;;;;;;;24.60;66.60;99727.06;334904;29;4776;-90
2023/08/23 00:45:00;;;;;;;1.75;1.40;;;;;;;24.58;67.03;99721.03;337590;28;4472;-90
2023/08/23 00:45:12;;;;;;;2.10;1.50;;;;;;;24.52;66.83;99724.25;332993;28;18685;-90
2023/08/23 00:45:25;;;;;;;2.10;1.50;;;;;;;24.51;67.16;99722.59;335512;28;5228;-89
2023/08/23 00:45:40;;;;;;;2.22;1.45;;;;;;;24.51;67.13;99722.59;333611;28;18410;-90
2023/08/23 00:45:52;;;;;;;1.70;1.50;;;;;;;24.52;66.85;99719.75;334053;28;10467;-91
2023/08/23 00:46:05;;;;;;;2.10;1.55;;;;;;;24.51;66.83;99718.09;332224;28;4636;-90
2023/08/23 00:46:18;;;;;;;1.80;1.30;;;;;;;24.52;67.43;99721.59;333039;28;17260;-91
2023/08/23 00:46:30;;;;;;;1.55;1.23;;;;;;;24.52;67.64;99718.94;336081;28;4567;-90
2023/08/23 00:46:43;;;;;;;1.55;1.27;;;;;;;24.47;67.34;99726.47;330909;28;16810;-90
2023/08/23 00:46:55;;;;;;;3.08;1.40;;;;;;;24.46;67.32;99722.13;334352;28;4619;-90
2023/08/23 00:47:07;;;;;;;2.92;1.40;;;;;;;24.41;67.48;99724.31;332345;28;16811;-90
2023/08/23 00:47:20;;;;;;;2.13;1.35;;;;;;;24.41;67.50;99716.34;333339;29;4480;-91
2023/08/23 00:47:32;;;;;;;1.58;1.40;;;;;;;24.41;68.04;99722.53;331849;29;4494;-90
2023/08/23 00:47:44;;;;;;;2.22;1.50;;;;;;;24.41;67.67;99716.34;331498;29;18057;-90
2023/08/23 00:47:57;;;;;;;2.78;1.33;;;;;;;24.42;67.56;99724.19;334875;28;4456;-91
2023/08/23 00:48:11;;;;;;;2.75;1.35;;;;;;;24.43;67.65;99725.06;331670;29;17798;-90
2023/08/23 00:48:24;;;;;;;1.70;1.40;;;;;;;24.40;67.41;99723.50;330515;29;18179;-89
2023/08/23 00:48:36;;;;;;;1.75;1.40;;;;;;;24.42;67.42;99723.38;334939;29;4446;-90
2023/08/23 00:48:49;;;;;;;4.00;1.50;;;;;;;24.41;67.35;99716.34;331750;29;17489;-91
2023/08/23 00:49:01;;;;;;;4.10;1.52;;;;;;;24.43;67.55;99722.41;336471;28;4550;-91
2023/08/23 00:49:14;;;;;;;2.25;1.63;;;;;;;24.43;67.53;99720.59;334061;28;17923;-90
2023/08/23 00:49:33;;;;;;;2.65;1.63;;;;;;;24.44;67.34;99721.41;336385;28;4482;-91
2023/08/23 00:49:46;;;;;;;2.95;1.70;;;;;;;24.45;67.34;99723.09;335545;28;17399;-90
2023/08/23 00:49:59;;;;;;;2.20;1.50;;;;;;;24.47;67.34;99729.94;334878;28;4704;-90
2023/08/23 00:50:11;;;;;;;1.50;1.38;;;;;;;24.48;67.39;99722.81;336955;28;4566;-90
2023/08/23 00:50:23;;;;;;;1.40;1.30;;;;;;;24.47;67.39;99721.16;334015;28;4519;-90
2023/08/23 00:50:35;;;;;;;1.88;1.35;;;;;;;24.48;67.55;99715.69;330850;29;17927;-90
2023/08/23 00:50:48;;;;;;;2.03;1.40;;;;;;;24.47;67.50;99715.84;332457;29;4484;-90
2023/08/23 00:51:00;;;;;;;3.75;1.80;;;;;;;24.49;67.75;99719.19;330460;29;16680;-89
2023/08/23 00:51:13;;;;;;;3.65;1.77;;;;;;;24.50;67.82;99720.88;333065;29;4637;-90
2023/08/23 00:51:25;;;;;;;2.60;1.52;;;;;;;24.48;67.93;99707.69;332805;29;16922;-91
2023/08/23 00:51:37;;;;;;;1.70;1.40;;;;;;;24.50;67.55;99720.88;336108;29;4495;-90
2023/08/23 00:51:51;;;;;;;2.03;1.40;;;;;;;24.49;67.85;99719.19;329021;28;18032;-90
2023/08/23 00:52:04;;;;;;;1.92;1.40;;;;;;;24.49;67.63;99719.19;337374;28;4488;-91
2023/08/23 00:52:17;;;;;;;2.05;1.40;;;;;;;24.50;67.64;99720.88;331905;29;18292;-90
2023/08/23 00:52:29;;;;;;;2.20;1.40;;;;;;;24.50;67.89;99721.72;332665;29;16932;-90
2023/08/23 00:52:54;;;;;;;1.67;1.27;;;;;;;24.52;67.51;99721.59;333293;28;18088;-91
2023/08/23 00:53:08;;;;;;;1.70;1.30;;;;;;;24.53;67.32;99720.63;333879;28;4472;-91
2023/08/23 00:53:20;;;;;;;1.98;1.45;;;;;;;24.53;67.55;99717.97;330442;29;17368;-91
2023/08/23 00:53:32;;;;;;;1.70;1.33;;;;;;;24.53;67.26;99723.28;329780;28;4803;-91
2023/08/23 00:53:46;;;;;;;1.83;1.52;;;;;;;24.54;67.40;99724.94;332432;28;7864;-90
2023/08/23 00:53:58;;;;;;;1.95;1.50;;;;;;;24.53;67.27;99723.28;334317;28;4536;-90
2023/08/23 00:54:11;;;;;;;1.45;1.33;;;;;;;24.52;67.23;99730.41;331477;29;17787;-91
2023/08/23 00:54:23;;;;;;;2.78;1.40;;;;;;;24.52;67.57;99724.25;333313;29;4643;-91
2023/08/23 00:54:35;;;;;;;2.60;1.35;;;;;;;24.53;67.05;99715.31;333250;28;17717;-91
2023/08/23 00:54:47;;;;;;;1.42;1.33;;;;;;;24.55;67.31;99729.31;331085;29;4489;-90
2023/08/23 00:55:00;;;;;;;1.48;1.38;;;;;;;24.55;67.64;99718.66;335231;28;4521;-90
2023/08/23 00:55:12;;;;;;;1.40;1.27;;;;;;;24.57;67.58;99722.03;335282;29;4575;-90
2023/08/23 00:55:24;;;;;;;1.52;1.25;;;;;;;24.58;67.49;99726.34;334906;29;4539;-90
2023/08/23 00:55:36;;;;;;;1.75;1.45;;;;;;;24.58;67.32;99720.22;331027;28;16659;-91
2023/08/23 00:55:49;;;;;;;1.98;1.60;;;;;;;24.58;66.93;99723.69;334921;29;4435;-89
2023/08/23 00:56:01;;;;;;;1.80;1.42;;;;;;;24.57;67.26;99719.38;331418;29;17667;-91
2023/08/23 00:56:13;;;;;;;2.50;1.35;;;;;;;24.58;67.03;99718.38;334853;29;4464;-91
2023/08/23 00:56:25;;;;;;;2.60;1.40;;;;;;;24.54;67.99;99722.28;327803;29;4459;-90
2023/08/23 00:56:38;;;;;;;2.28;1.38;;;;;;;24.53;68.05;99717.97;329269;29;18105;-91
2023/08/23 00:56:50;;;;;;;2.45;1.40;;;;;;;24.54;68.03;99726.78;332110;29;4518;-90
2023/08/23 00:57:03;;;;;;;2.95;1.50;;;;;;;24.50;67.97;99720.88;326422;29;17909;-90
2023/08/23 00:57:15;;;;;;;1.83;1.38;;;;;;;24.50;67.93;99720.88;330997;29;4633;-91
2023/08/23 00:57:27;;;;;;;1.80;1.50;;;;;;;24.52;67.75;99724.25;330429;29;18034;-90
2023/08/23 00:57:39;;;;;;;2.30;1.50;;;;;;;24.52;67.49;99724.25;334575;29;5132;-90
2023/08/23 00:57:52;;;;;;;2.40;1.60;;;;;;;24.54;67.50;99722.28;331855;29;4484;-91
2023/08/23 00:58:05;;;;;;;1.67;1.40;;;;;;;24.54;67.55;99727.59;334286;29;4667;-91
2023/08/23 00:58:18;;;;;;;2.50;1.48;;;;;;;24.54;67.52;99718.81;331724;29;9905;-92
2023/08/23 00:58:30;;;;;;;2.90;1.60;;;;;;;24.54;67.33;99716.16;332006;29;4512;-90
2023/08/23 00:58:42;;;;;;;4.25;1.55;;;;;;;24.55;67.50;99718.66;331545;28;4762;-91
2023/08/23 00:58:54;;;;;;;3.30;1.40;;;;;;;24.55;67.25;99718.66;333011;29;4512;-90
2023/08/23 00:59:08;;;;;;;1.75;1.38;;;;;;;24.55;67.14;99720.47;333140;29;7776;-90
2023/08/23 00:59:20;;;;;;;1.92;1.42;;;;;;;24.55;67.48;99724.00;335723;28;4499;-90
2023/08/23 00:59:32;;;;;;;2.10;1.60;;;;;;;24.55;67.08;99716.00;335932;28;4681;-91
2023/08/23 00:59:44;;;;;;;2.13;1.60;;;;;;;24.54;67.22;99722.28;332543;28;16634;-91
2023/08/23 00:59:57;;;;;;;2.08;1.52;;;;;;;24.54;67.19;99716.97;336655;28;4497;-91
2023/08/23 01:00:10;;;;;;;3.15;1.50;;;;;;;24.54;67.17;99722.28;334779;28;4529;-90
2023/08/23 01:00:22;;;;;;;3.80;1.52;;;;;;;24.55;67.46;99724.00;336038;28;4468;-91